Time;durP1;ratioP1;P1;durP2;ratioP2;P2;SDS_P1;SDS_P2;PMS_P1;PMS_P2;Temp;Humidity;BMP_temperature;BMP_pressure;BME280_temperature;BME280_humidity;BME280_pressure;Samples;Min_cycle;Max_cycle;Signal;HPM_P1;HPM_P2
2024/04/25 00:01:48;;;;;;;4.20;3.00;;;;;;;19.34;78.87;99723.30;106186;1257;61970;-85
2024/04/25 00:04:16;;;;;;;7.80;3.10;;;;;;;18.68;85.30;99724.27;106240;1260;75511;-82
2024/04/25 00:06:43;;;;;;;6.20;3.30;;;;;;;18.58;84.68;99722.86;106354;1255;69050;-85
2024/04/25 00:09:11;;;;;;;4.40;2.80;;;;;;;18.86;83.09;99719.46;106202;1257;72653;-82
2024/04/25 00:11:38;;;;;;;5.10;3.00;;;;;;;18.13;88.26;99718.34;106259;1256;62090;-85
2024/04/25 00:14:06;;;;;;;7.00;3.00;;;;;;;17.79;91.94;99721.08;106349;1257;62188;-85
2024/04/25 00:16:34;;;;;;;7.70;3.00;;;;;;;17.60;93.17;99729.67;106330;1259;75551;-82
2024/04/25 00:19:02;;;;;;;4.70;2.90;;;;;;;18.08;89.02;99728.39;106361;1255;68528;-82
2024/04/25 00:21:29;;;;;;;6.10;2.50;;;;;;;17.48;92.85;99729.98;106220;1260;72839;-85
2024/04/25 00:23:57;;;;;;;6.40;2.20;;;;;;;17.46;93.18;99727.39;106350;1256;62101;-82
2024/04/25 00:26:24;;;;;;;3.20;2.30;;;;;;;17.36;92.55;99729.75;106167;1256;62114;-85
2024/04/25 00:28:52;;;;;;;6.90;3.50;;;;;;;17.33;92.51;99733.40;106210;1256;75159;-82
2024/04/25 00:31:20;;;;;;;3.90;2.60;;;;;;;18.04;85.89;99734.00;105933;1257;68065;-82
2024/04/25 00:33:48;;;;;;;5.60;2.60;;;;;;;17.65;89.01;99740.12;106307;1260;72647;-82
2024/04/25 00:36:15;;;;;;;4.20;2.90;;;;;;;18.64;80.16;99740.91;106045;1257;62110;-83
2024/04/25 00:38:43;;;;;;;7.10;3.20;;;;;;;18.70;78.52;99746.92;106234;1260;62216;-82
2024/04/25 00:41:10;;;;;;;3.70;2.10;;;;;;;17.94;83.66;99746.42;106066;1262;75496;-86
2024/04/25 00:43:38;;;;;;;6.10;3.00;;;;;;;17.69;86.15;99749.64;106154;1255;67277;-82
2024/04/25 00:46:05;;;;;;;3.00;1.50;;;;;;;18.16;82.52;99746.61;106071;1256;72679;-86
2024/04/25 00:48:33;;;;;;;1.10;1.00;;;;;;;18.26;78.77;99746.20;106319;1257;60633;-82
2024/04/25 00:51:03;;;;;;;2.80;1.20;;;;;;;17.21;86.40;99755.71;105984;1262;61991;-86
2024/04/25 00:53:31;;;;;;;2.50;2.00;;;;;;;17.23;85.44;99758.09;106171;1254;74668;-86
2024/04/25 00:55:59;;;;;;;6.70;3.30;;;;;;;17.20;85.04;99763.35;106070;1261;67289;-83
2024/04/25 00:58:26;;;;;;;3.80;2.60;;;;;;;17.00;87.42;99768.55;106249;1257;72794;-82
2024/04/25 01:00:54;;;;;;;4.60;2.20;;;;;;;17.07;87.32;99767.15;105935;1257;62163;-83
2024/04/25 01:03:21;;;;;;;4.60;2.30;;;;;;;16.92;87.43;99762.82;106224;1255;62140;-86
2024/04/25 01:05:49;;;;;;;6.50;4.20;;;;;;;16.98;86.21;99757.44;106620;1259;75538;-83
2024/04/25 01:08:16;;;;;;;7.80;4.40;;;;;;;16.92;86.20;99760.30;106193;1254;68557;-83
2024/04/25 01:10:45;;;;;;;7.20;3.60;;;;;;;16.93;86.74;99764.80;106254;1256;72752;-82
2024/04/25 01:13:13;;;;;;;7.70;3.60;;;;;;;16.74;88.43;99778.70;106256;1257;62079;-87
2024/04/25 01:15:40;;;;;;;11.10;3.70;;;;;;;16.94;87.21;99774.73;106213;1254;62118;-87
2024/04/25 01:18:08;;;;;;;6.20;4.00;;;;;;;16.82;87.43;99776.38;106110;1257;74559;-83
2024/04/25 01:20:35;;;;;;;6.20;3.90;;;;;;;16.79;88.09;99777.84;106029;1254;68918;-83
2024/04/25 01:23:06;;;;;;;8.50;3.80;;;;;;;16.61;89.00;99775.74;106299;1261;72724;-83
2024/04/25 01:25:34;;;;;;;6.80;3.70;;;;;;;16.44;90.26;99772.12;106398;1260;62105;-83
2024/04/25 01:28:03;;;;;;;6.00;3.10;;;;;;;16.50;89.95;99771.52;106298;1256;62216;-87
2024/04/25 01:30:32;;;;;;;6.50;3.60;;;;;;;16.76;87.39;99771.27;106271;1254;75550;-83
2024/04/25 01:33:01;;;;;;;4.30;2.80;;;;;;;16.36;90.02;99772.05;106358;1257;67641;-83
2024/04/25 01:35:29;;;;;;;5.60;3.40;;;;;;;16.23;90.87;99767.45;106324;1256;72864;-87
2024/04/25 01:37:59;;;;;;;9.40;3.70;;;;;;;16.05;92.36;99768.77;106309;1257;62159;-83
2024/04/25 01:40:26;;;;;;;5.70;3.50;;;;;;;16.25;90.85;99771.81;106251;1255;62066;-83
2024/04/25 01:42:54;;;;;;;7.10;3.60;;;;;;;16.44;88.80;99775.33;106248;1256;74337;-87
2024/04/25 01:45:21;;;;;;;9.80;3.60;;;;;;;16.36;89.41;99778.27;106385;1259;68693;-87
2024/04/25 01:47:49;;;;;;;8.80;4.40;;;;;;;16.29;90.15;99782.89;106249;1257;71334;-87
2024/04/25 01:50:17;;;;;;;6.00;3.40;;;;;;;16.26;90.45;99785.66;106242;1257;62086;-87
2024/04/25 01:52:44;;;;;;;5.00;3.50;;;;;;;16.54;88.01;99787.19;106361;1256;61941;-83
2024/04/25 01:55:12;;;;;;;6.50;3.50;;;;;;;17.07;83.23;99781.77;106052;1262;75491;-86
2024/04/25 01:57:40;;;;;;;5.00;3.20;;;;;;;17.59;77.87;99782.75;106110;1254;66849;-86
2024/04/25 02:00:07;;;;;;;9.70;3.80;;;;;;;17.39;78.51;99786.90;106120;1257;72791;-86
2024/04/25 02:02:38;;;;;;;5.70;4.00;;;;;;;17.28;79.10;99790.98;106080;1258;62182;-84
2024/04/25 02:05:06;;;;;;;12.00;3.70;;;;;;;17.15;79.84;99792.89;106124;1256;61942;-84
2024/04/25 02:07:33;;;;;;;7.00;4.10;;;;;;;17.17;79.40;99796.05;106156;1261;73901;-83
2024/04/25 02:10:01;;;;;;;6.00;3.30;;;;;;;17.22;78.39;99790.79;106394;1254;68516;-86
2024/04/25 02:12:29;;;;;;;2.80;2.10;;;;;;;17.19;78.70;99787.58;106272;1262;73061;-84
2024/04/25 02:14:56;;;;;;;3.60;2.60;;;;;;;17.22;76.76;99789.68;106355;1260;61969;-86
2024/04/25 02:17:24;;;;;;;5.00;3.20;;;;;;;17.27;75.79;99796.96;106271;1254;62139;-86
2024/04/25 02:19:51;;;;;;;8.20;3.60;;;;;;;17.10;76.67;99801.24;106492;1261;75639;-87
2024/04/25 02:25:14;;;;;;;8.60;3.50;;;;;;;17.65;71.99;99800.95;106058;1259;72738;-84
2024/04/25 02:27:44;;;;;;;11.00;3.30;;;;;;;16.97;76.88;99805.00;106367;1257;62003;-86
2024/04/25 02:30:11;;;;;;;9.90;3.90;;;;;;;17.18;75.93;99805.08;107250;1254;61934;-84
2024/04/25 02:32:42;;;;;;;6.80;2.80;;;;;;;17.24;74.01;99810.59;106277;1257;74345;-87
2024/04/25 02:35:10;;;;;;;8.00;2.50;;;;;;;16.58;78.39;99813.23;106333;1263;67276;-84
2024/04/25 02:37:37;;;;;;;6.00;2.70;;;;;;;16.41;80.87;99811.29;106250;1260;73138;-87
2024/04/25 02:40:05;;;;;;;4.70;3.00;;;;;;;16.70;78.42;99810.84;106184;1257;62053;-84
2024/04/25 02:42:33;;;;;;;4.10;3.20;;;;;;;16.73;77.38;99813.96;106122;1260;61976;-83
2024/04/25 02:45:00;;;;;;;6.80;3.90;;;;;;;16.64;77.95;99815.26;106027;1257;74355;-84
2024/04/25 02:47:28;;;;;;;7.60;3.30;;;;;;;16.42;79.66;99817.73;106096;1255;68484;-87
2024/04/25 02:49:56;;;;;;;5.80;3.20;;;;;;;16.55;79.21;99820.02;106166;1260;72740;-84
2024/04/25 02:52:23;;;;;;;4.80;3.10;;;;;;;15.31;87.42;99824.80;106127;1262;62151;-87
2024/04/25 02:54:53;;;;;;;7.30;3.10;;;;;;;14.83;93.16;99824.34;106083;1259;61264;-83
2024/04/25 02:57:22;;;;;;;5.50;3.40;;;;;;;14.94;93.14;99823.18;106252;1260;76323;-84
2024/04/25 02:59:49;;;;;;;6.70;3.30;;;;;;;15.42;89.81;99820.83;106182;1254;68546;-83
2024/04/25 03:02:17;;;;;;;10.00;4.10;;;;;;;16.04;84.03;99821.33;106196;1257;71893;-84
2024/04/25 03:04:44;;;;;;;7.80;4.50;;;;;;;15.41;88.17;99826.38;106136;1259;62076;-86
2024/04/25 03:07:12;;;;;;;5.90;3.60;;;;;;;14.99;92.53;99834.66;106193;1254;62168;-86
2024/04/25 03:09:39;;;;;;;6.80;3.40;;;;;;;15.03;93.31;99836.58;106247;1257;75556;-83
2024/04/25 03:12:07;;;;;;;9.00;3.80;;;;;;;16.07;85.84;99838.05;106255;1262;68812;-84
2024/04/25 03:14:35;;;;;;;8.80;4.00;;;;;;;16.20;83.48;99839.05;106157;1260;71482;-84
2024/04/25 03:17:02;;;;;;;10.00;3.70;;;;;;;15.96;86.61;99844.77;105966;1256;62114;-86
2024/04/25 03:19:30;;;;;;;6.10;3.20;;;;;;;15.91;87.77;99850.05;106012;1255;62107;-86
2024/04/25 03:21:57;;;;;;;7.90;3.40;;;;;;;15.97;87.67;99852.60;106355;1261;75492;-85
2024/04/25 03:24:25;;;;;;;4.50;3.70;;;;;;;16.45;85.42;99856.00;106250;1254;68599;-84
2024/04/25 03:26:53;;;;;;;7.60;4.50;;;;;;;15.97;87.47;99859.59;106061;1260;73189;-86
2024/04/25 03:29:20;;;;;;;5.00;3.70;;;;;;;15.84;90.01;99864.76;106307;1256;62144;-84
2024/04/25 03:31:48;;;;;;;10.00;3.60;;;;;;;15.89;90.98;99868.11;106158;1257;62139;-83
2024/04/25 03:34:16;;;;;;;8.70;4.30;;;;;;;15.84;92.94;99869.02;106275;1260;75561;-85
2024/04/25 03:36:44;;;;;;;9.20;4.40;;;;;;;16.04;93.14;99873.28;106147;1260;67589;-86
2024/04/25 03:39:12;;;;;;;9.30;3.60;;;;;;;16.32;92.03;99869.48;106324;1260;71524;-86
2024/04/25 03:41:40;;;;;;;6.10;3.80;;;;;;;16.08;95.82;99871.41;106246;1254;62111;-83
2024/04/25 03:44:07;;;;;;;21.20;5.10;;;;;;;15.84;99.86;99871.59;106312;1254;62009;-83
2024/04/25 03:46:35;;;;;;;8.70;4.60;;;;;;;16.33;99.34;99870.36;106307;1257;74372;-85
2024/04/25 03:49:02;;;;;;;7.80;4.40;;;;;;;16.22;99.76;99870.41;106427;1259;67762;-86
2024/04/25 03:51:30;;;;;;;8.10;4.60;;;;;;;16.40;100.00;99873.16;106314;1259;71558;-83
2024/04/25 03:53:58;;;;;;;7.20;4.70;;;;;;;16.58;100.00;99873.35;106296;1254;62147;-83
2024/04/25 03:56:25;;;;;;;9.60;4.10;;;;;;;16.87;100.00;99873.96;106331;1254;62171;-85
2024/04/25 03:58:53;;;;;;;6.10;4.00;;;;;;;17.57;100.00;99871.07;106279;1259;75472;-83
2024/04/25 04:01:20;;;;;;;8.30;4.80;;;;;;;18.93;95.86;99869.79;106266;1254;68821;-83
2024/04/25 04:03:48;;;;;;;8.40;4.20;;;;;;;18.77;97.88;99868.91;106296;1260;72777;-83
2024/04/25 04:06:19;;;;;;;7.60;4.80;;;;;;;19.10;97.63;99868.88;106325;1260;62054;-86
2024/04/25 04:08:47;;;;;;;11.70;4.60;;;;;;;19.03;100.00;99872.09;106245;1255;61990;-85
2024/04/25 04:11:14;;;;;;;7.80;4.40;;;;;;;18.93;100.00;99869.02;106438;1260;75500;-85
2024/04/25 04:13:42;;;;;;;8.30;4.40;;;;;;;19.04;100.00;99863.58;106171;1260;68092;-85
2024/04/25 04:16:09;;;;;;;7.30;4.30;;;;;;;19.29;99.24;99864.98;106031;1254;72820;-85
2024/04/25 04:18:37;;;;;;;9.10;4.70;;;;;;;19.44;97.65;99860.98;106219;1257;62069;-82
2024/04/25 04:21:05;;;;;;;9.20;4.70;;;;;;;19.59;96.10;99860.61;106192;1254;62529;-84
2024/04/25 04:23:32;;;;;;;9.50;4.90;;;;;;;19.38;98.88;99867.63;106251;1262;74242;-84
2024/04/25 04:26:00;;;;;;;10.70;4.80;;;;;;;19.63;99.01;99870.11;106346;1260;67540;-86
2024/04/25 04:28:27;;;;;;;14.40;7.10;;;;;;;19.38;99.77;99865.65;106280;1260;73007;-86
2024/04/25 04:30:55;;;;;;;7.50;5.00;;;;;;;19.46;100.00;99865.40;106074;1258;62197;-86
2024/04/25 04:33:23;;;;;;;6.80;4.40;;;;;;;19.54;100.00;99864.35;106216;1255;62325;-84
2024/04/25 04:35:50;;;;;;;7.90;4.10;;;;;;;19.66;100.00;99867.08;106277;1254;75531;-86
2024/04/25 04:38:18;;;;;;;6.70;4.20;;;;;;;19.85;100.00;99863.38;106259;1258;68555;-86
2024/04/25 04:40:46;;;;;;;6.70;4.70;;;;;;;20.69;99.66;99868.15;106246;1257;71477;-84
2024/04/25 04:43:13;;;;;;;7.60;5.20;;;;;;;20.75;99.68;99872.02;106244;1257;62112;-86
2024/04/25 04:45:41;;;;;;;8.10;4.70;;;;;;;20.50;100.00;99873.42;106134;1259;62086;-86
2024/04/25 04:48:08;;;;;;;7.60;4.80;;;;;;;20.88;99.83;99874.28;106314;1263;75862;-85
2024/04/25 04:50:46;;;;;;;8.30;5.30;;;;;;;20.71;100.00;99875.56;106325;1254;69071;-86
2024/04/25 04:53:13;;;;;;;8.10;4.70;;;;;;;20.76;100.00;99869.73;106303;1260;73303;-86
2024/04/25 04:55:42;;;;;;;8.10;4.10;;;;;;;22.11;97.11;99860.66;106340;1255;62220;-86
2024/04/25 04:58:09;;;;;;;6.00;3.60;;;;;;;22.43;95.11;99859.95;106270;1255;62308;-84
2024/04/25 05:00:37;;;;;;;7.60;4.10;;;;;;;22.74;93.04;99861.52;106126;1254;77682;-84
2024/04/25 05:03:06;;;;;;;7.00;4.20;;;;;;;22.74;92.09;99867.86;106391;1255;71145;-85
2024/04/25 05:05:34;;;;;;;9.40;3.80;;;;;;;22.14;99.35;99867.41;106308;1259;75056;-84
2024/04/25 05:08:01;;;;;;;8.40;3.90;;;;;;;23.09;92.95;99865.75;106223;1254;63389;-84
2024/04/25 05:10:29;;;;;;;5.50;3.90;;;;;;;23.72;88.57;99863.90;106159;1260;62025;-84
2024/04/25 05:12:56;;;;;;;9.70;4.20;;;;;;;23.87;88.63;99860.94;106217;1260;77709;-84
2024/04/25 05:15:24;;;;;;;7.10;3.50;;;;;;;23.86;90.30;99867.00;106208;1260;68388;-82
2024/04/25 05:17:53;;;;;;;7.80;3.90;;;;;;;23.98;86.59;99868.46;106139;1263;76274;-82
2024/04/25 05:20:20;;;;;;;7.20;3.80;;;;;;;23.53;89.03;99867.19;106235;1260;62192;-83
2024/04/25 05:22:48;;;;;;;9.30;3.90;;;;;;;24.00;86.13;99864.65;106204;1260;62141;-83
2024/04/25 05:25:15;;;;;;;8.20;3.40;;;;;;;24.58;81.15;99858.90;106390;1260;77702;-84
2024/04/25 05:27:43;;;;;;;7.80;3.40;;;;;;;25.06;74.23;99858.79;106341;1255;69874;-84
2024/04/25 05:30:10;;;;;;;7.40;3.20;;;;;;;24.92;73.00;99854.40;106460;1260;75065;-84
2024/04/25 05:32:38;;;;;;;4.20;3.20;;;;;;;24.43;77.57;99859.68;106240;1269;62072;-83
2024/04/25 05:35:06;;;;;;;7.10;3.30;;;;;;;24.72;76.42;99862.36;106270;1260;62177;-86
2024/04/25 05:37:34;;;;;;;6.00;3.00;;;;;;;25.19;72.17;99864.14;106342;1254;65496;-83
2024/04/25 05:40:01;;;;;;;5.20;2.30;;;;;;;25.34;70.00;99868.14;106241;1255;62398;-83
2024/04/25 05:42:29;;;;;;;5.40;3.00;;;;;;;25.52;68.48;99871.95;106301;1261;66129;-83
2024/04/25 05:44:57;;;;;;;8.50;3.80;;;;;;;25.26;69.31;99871.30;106408;1259;62156;-84
2024/04/25 05:47:24;;;;;;;5.80;3.00;;;;;;;25.63;66.67;99869.58;106136;1254;61976;-84
2024/04/25 05:49:52;;;;;;;7.30;3.00;;;;;;;26.09;63.01;99874.23;106058;1260;77771;-84
2024/04/25 05:52:21;;;;;;;4.80;2.70;;;;;;;26.23;61.16;99884.00;106081;1254;62708;-83
2024/04/25 05:54:49;;;;;;;8.90;3.40;;;;;;;26.47;58.77;99885.29;106331;1257;75067;-83
2024/04/25 05:57:17;;;;;;;4.20;2.10;;;;;;;26.81;55.63;99881.41;106224;1254;62254;-83
2024/04/25 05:59:45;;;;;;;5.60;2.50;;;;;;;27.48;52.23;99886.98;106035;1254;62334;-84
2024/04/25 06:02:12;;;;;;;4.70;1.60;;;;;;;27.42;49.76;99889.83;106270;1260;68547;-84
2024/04/25 06:04:40;;;;;;;7.00;1.80;;;;;;;27.41;47.58;99896.72;106307;1259;62053;-83
2024/04/25 06:07:08;;;;;;;3.10;1.30;;;;;;;27.36;47.33;99900.26;105968;1257;74940;-84
2024/04/25 06:09:35;;;;;;;3.30;1.20;;;;;;;27.18;46.83;99902.39;106198;1255;62149;-83
2024/04/25 06:12:03;;;;;;;2.10;1.20;;;;;;;26.26;50.45;99911.05;106312;1254;62091;-84
2024/04/25 06:14:31;;;;;;;6.30;1.90;;;;;;;25.77;53.78;99910.54;106151;1260;220475;-83
2024/04/25 06:16:58;;;;;;;4.00;1.40;;;;;;;26.61;51.42;99906.48;106075;1254;67709;-84
2024/04/25 06:19:26;;;;;;;3.20;1.50;;;;;;;26.59;51.78;99903.85;106013;1261;66012;-84
2024/04/25 06:21:55;;;;;;;3.40;1.50;;;;;;;26.75;51.37;99901.83;106125;1254;62165;-84
2024/04/25 06:24:22;;;;;;;5.10;1.60;;;;;;;26.36;48.35;99898.58;105992;1260;62271;-84
2024/04/25 06:26:50;;;;;;;5.40;1.50;;;;;;;26.08;47.65;99901.83;106182;1262;77844;-84
2024/04/25 06:29:18;;;;;;;6.90;1.70;;;;;;;26.01;49.54;99900.70;106378;1260;62150;-83
2024/04/25 06:31:45;;;;;;;5.00;1.70;;;;;;;26.03;50.97;99900.88;106093;1261;65861;-83
2024/04/25 06:34:13;;;;;;;3.40;2.10;;;;;;;26.37;50.51;99901.04;106042;1254;62216;-83
2024/04/25 06:36:40;;;;;;;6.60;2.00;;;;;;;26.78;47.49;99896.91;106018;1254;62239;-83
2024/04/25 06:39:09;;;;;;;3.40;1.70;;;;;;;26.42;49.25;99901.45;106152;1255;65654;-83
2024/04/25 06:41:37;;;;;;;5.20;1.20;;;;;;;26.45;48.98;99902.25;106188;1254;71181;-83
2024/04/25 06:44:17;;;;;;;6.00;2.00;;;;;;;26.50;47.51;99902.90;106226;1254;65238;-83
2024/04/25 06:46:58;;;;;;;6.00;2.10;;;;;;;26.69;48.72;99904.08;106114;1255;62060;-83
2024/04/25 06:49:26;;;;;;;4.50;1.90;;;;;;;26.74;47.58;99902.00;106328;1257;62005;-84
2024/04/25 06:51:53;;;;;;;3.60;1.50;;;;;;;27.06;47.64;99905.63;106139;1260;78185;-83
2024/04/25 06:54:21;;;;;;;4.40;1.30;;;;;;;27.30;46.47;99906.77;106118;1254;62137;-83
2024/04/25 06:56:50;;;;;;;2.70;1.50;;;;;;;27.95;44.56;99900.02;106236;1257;73688;-84
2024/04/25 06:59:19;;;;;;;2.90;1.30;;;;;;;28.08;43.89;99897.54;106281;1257;62208;-84
2024/04/25 07:01:49;;;;;;;2.20;1.20;;;;;;;28.98;42.40;99896.28;106376;1254;62005;-84
2024/04/25 07:04:17;;;;;;;4.30;1.60;;;;;;;29.17;41.79;99890.52;106457;1254;76478;-84
2024/04/25 07:06:44;;;;;;;3.90;1.50;;;;;;;29.05;41.82;99889.34;106301;1257;71390;-84
2024/04/25 07:09:12;;;;;;;5.30;1.80;;;;;;;29.19;40.48;99885.60;106219;1257;73354;-84
2024/04/25 07:11:40;;;;;;;4.40;1.50;;;;;;;28.60;41.31;99892.40;106159;1257;62363;-84
2024/04/25 07:14:07;;;;;;;2.00;1.20;;;;;;;29.42;40.36;99891.06;106195;1260;62074;-83
2024/04/25 07:16:35;;;;;;;2.70;1.40;;;;;;;29.28;40.44;99884.80;106577;1254;65514;-83
2024/04/25 07:19:02;;;;;;;4.70;1.40;;;;;;;28.80;41.61;99883.84;106390;1255;69649;-83
2024/04/25 07:21:30;;;;;;;4.50;1.60;;;;;;;29.36;40.82;99883.40;106367;1260;66157;-82
2024/04/25 07:23:57;;;;;;;3.90;1.80;;;;;;;29.54;40.67;99890.66;106229;1254;62101;-83
2024/04/25 07:26:29;;;;;;;2.30;1.30;;;;;;;29.71;40.29;99890.58;106283;1254;62005;-82
2024/04/25 07:28:56;;;;;;;3.80;1.40;;;;;;;30.47;38.26;99888.88;106405;1260;68884;-82
2024/04/25 07:31:24;;;;;;;2.80;1.30;;;;;;;30.55;37.63;99890.17;106439;1254;70034;-82
2024/04/25 07:33:51;;;;;;;2.60;1.40;;;;;;;30.21;37.40;99887.59;106346;1257;74997;-83
2024/04/25 07:36:22;;;;;;;4.30;1.50;;;;;;;28.78;40.05;99891.45;106036;1260;62048;-83
2024/04/25 07:38:53;;;;;;;2.10;1.60;;;;;;;27.92;42.66;99890.92;106294;1254;62200;-83
2024/04/25 07:41:20;;;;;;;3.10;1.80;;;;;;;27.82;44.39;99889.29;106236;1254;76416;-83
2024/04/25 07:43:48;;;;;;;3.60;1.70;;;;;;;27.73;45.39;99889.97;106273;1254;62433;-82
2024/04/25 07:46:16;;;;;;;5.20;2.30;;;;;;;27.88;45.24;99887.17;106211;1254;72386;-83
2024/04/25 07:48:44;;;;;;;5.00;1.80;;;;;;;28.20;44.67;99886.86;106193;1254;62117;-83
2024/04/25 07:51:12;;;;;;;2.80;1.70;;;;;;;28.44;44.32;99881.69;106308;1260;62050;-83
2024/04/25 07:53:42;;;;;;;2.70;1.80;;;;;;;28.52;43.81;99883.09;106502;1254;65677;-84
2024/04/25 07:56:10;;;;;;;3.80;1.70;;;;;;;28.52;43.13;99884.29;106433;1254;62072;-83
2024/04/25 07:58:38;;;;;;;5.30;2.00;;;;;;;29.03;42.63;99888.21;106381;1257;65968;-84
2024/04/25 08:01:05;;;;;;;5.20;2.10;;;;;;;29.60;41.57;99888.97;106269;1257;62148;-82
2024/04/25 08:03:35;;;;;;;4.00;2.20;;;;;;;29.29;42.01;99891.63;106394;1254;62242;-83
2024/04/25 08:06:03;;;;;;;3.00;1.90;;;;;;;29.00;43.02;99895.78;106030;1257;67378;-83
2024/04/25 08:08:31;;;;;;;4.20;1.70;;;;;;;29.41;42.31;99896.85;106194;1254;61948;-83
2024/04/25 08:11:00;;;;;;;2.80;1.80;;;;;;;29.89;40.10;99895.26;106105;1257;66394;-84
2024/04/25 08:13:28;;;;;;;2.80;1.80;;;;;;;29.54;40.42;99893.70;106167;1257;62176;-83
2024/04/25 08:15:55;;;;;;;3.30;1.60;;;;;;;29.35;42.27;99897.66;106206;1257;62301;-83
2024/04/25 08:18:23;;;;;;;4.10;1.90;;;;;;;29.98;40.95;99894.73;106267;1254;78152;-84
2024/04/25 08:20:51;;;;;;;2.60;1.40;;;;;;;30.16;40.53;99895.26;106553;1254;71047;-83
2024/04/25 08:23:18;;;;;;;8.20;1.50;;;;;;;30.22;40.17;99893.23;106093;1254;66398;-84
2024/04/25 08:25:46;;;;;;;4.40;1.80;;;;;;;30.50;39.02;99895.69;105980;1257;62185;-85
2024/04/25 08:28:13;;;;;;;3.80;1.50;;;;;;;30.47;39.54;99893.00;106175;1254;62163;-84
2024/04/25 08:30:41;;;;;;;3.10;1.50;;;;;;;30.52;39.46;99893.56;106512;1256;69240;-85
2024/04/25 08:33:09;;;;;;;4.70;2.00;;;;;;;30.12;40.49;99893.15;106719;1256;62094;-85
2024/04/25 08:35:38;;;;;;;4.90;1.60;;;;;;;30.36;39.14;99892.85;106313;1257;72204;-84
2024/04/25 08:38:05;;;;;;;3.60;1.40;;;;;;;30.23;38.80;99894.90;106326;1257;62176;-85
2024/04/25 08:40:33;;;;;;;2.80;1.50;;;;;;;30.35;39.29;99888.42;106356;1258;61973;-86
2024/04/25 08:43:02;;;;;;;2.10;1.40;;;;;;;30.34;39.39;99887.90;106249;1258;69708;-84
2024/04/25 08:45:30;;;;;;;4.60;1.30;;;;;;;30.45;39.32;99885.63;106224;1257;62012;-84
2024/04/25 08:47:58;;;;;;;3.50;1.60;;;;;;;30.46;39.11;99884.40;106324;1260;62599;-85
2024/04/25 08:50:27;;;;;;;4.50;1.60;;;;;;;30.06;39.37;99879.31;106203;1261;62162;-84
2024/04/25 08:52:55;;;;;;;3.40;1.30;;;;;;;29.84;40.48;99880.05;106365;1261;62616;-85
2024/04/25 08:55:23;;;;;;;3.00;1.70;;;;;;;30.06;40.61;99877.86;106260;1256;69451;-84
2024/04/25 08:57:51;;;;;;;3.70;1.80;;;;;;;30.12;40.31;99874.80;106375;1260;62072;-84
2024/04/25 09:00:18;;;;;;;4.70;2.20;;;;;;;30.20;40.82;99877.83;106291;1257;65299;-84
2024/04/25 09:02:46;;;;;;;4.30;1.90;;;;;;;30.28;41.84;99873.83;106370;1257;62172;-84
2024/04/25 09:05:14;;;;;;;4.40;1.60;;;;;;;30.36;40.17;99872.41;106376;1256;62066;-84
2024/04/25 09:07:45;;;;;;;7.60;1.90;;;;;;;30.44;39.97;99870.10;106328;1256;68452;-84
2024/04/25 09:10:13;;;;;;;3.40;1.70;;;;;;;30.43;40.46;99867.05;106279;1257;71005;-83
2024/04/25 09:12:41;;;;;;;3.40;1.80;;;;;;;30.26;40.61;99869.98;106389;1256;62921;-83
2024/04/25 09:15:08;;;;;;;4.90;1.90;;;;;;;30.50;40.29;99864.98;106225;1262;62162;-84
2024/04/25 09:17:36;;;;;;;7.00;2.20;;;;;;;30.81;39.23;99859.86;106414;1257;61945;-83
2024/04/25 09:20:07;;;;;;;3.60;2.00;;;;;;;30.85;39.01;99863.17;106290;1257;77511;-83
2024/04/25 09:22:37;;;;;;;4.10;2.10;;;;;;;30.86;39.64;99861.62;106266;1259;70935;-84
2024/04/25 09:25:08;;;;;;;5.30;2.10;;;;;;;31.05;40.51;99864.14;106263;1260;74948;-84
2024/04/25 09:27:36;;;;;;;3.70;2.40;;;;;;;31.25;40.10;99864.77;105990;1259;62197;-82
2024/04/25 09:30:05;;;;;;;6.50;3.20;;;;;;;31.14;39.88;99866.16;106342;1260;61992;-83
2024/04/25 09:32:33;;;;;;;4.40;2.00;;;;;;;31.06;40.05;99868.56;106214;1258;76514;-83
2024/04/25 09:35:00;;;;;;;3.20;2.10;;;;;;;30.89;39.82;99868.56;106120;1256;62161;-82
2024/04/25 09:37:32;;;;;;;4.80;2.50;;;;;;;30.23;40.89;99873.33;106034;1256;74940;-81
2024/04/25 09:39:59;;;;;;;4.70;2.30;;;;;;;30.38;40.86;99873.34;106298;1257;62186;-83
2024/04/25 09:42:34;;;;;;;5.10;2.40;;;;;;;30.48;40.71;99871.70;106377;1256;62008;-83
2024/04/25 09:45:09;;;;;;;6.00;2.80;;;;;;;30.48;41.38;99873.90;106459;1260;77776;-84
2024/04/25 09:47:41;;;;;;;3.90;2.10;;;;;;;30.66;40.91;99872.86;106145;1264;62351;-84
2024/04/25 09:50:13;;;;;;;3.30;1.70;;;;;;;30.84;40.15;99873.58;106245;1261;66182;-84
2024/04/25 09:52:44;;;;;;;5.30;2.10;;;;;;;30.87;39.64;99873.91;106192;1256;62159;-85
2024/04/25 09:55:15;;;;;;;5.10;1.90;;;;;;;31.08;39.03;99875.77;106143;1257;62170;-84
2024/04/25 09:57:46;;;;;;;4.30;1.70;;;;;;;31.15;38.88;99876.11;106600;1254;68084;-84
2024/04/25 10:00:15;;;;;;;3.50;2.00;;;;;;;31.17;39.44;99877.85;106091;1257;68934;-83
2024/04/25 10:02:42;;;;;;;4.80;1.70;;;;;;;31.25;39.35;99880.10;106264;1257;65054;-84
2024/04/25 10:05:10;;;;;;;3.30;1.70;;;;;;;31.66;38.23;99874.89;106091;1256;61983;-85
2024/04/25 10:07:37;;;;;;;3.50;1.80;;;;;;;31.57;38.98;99876.39;106070;1259;61945;-85
2024/04/25 10:10:06;;;;;;;6.90;1.80;;;;;;;31.48;39.29;99878.59;106065;1262;77239;-85
2024/04/25 10:12:33;;;;;;;2.90;2.00;;;;;;;31.68;38.39;99881.23;106059;1256;62787;-85
2024/04/25 10:15:02;;;;;;;2.70;1.70;;;;;;;31.09;38.74;99875.55;106165;1256;62584;-85
2024/04/25 10:17:34;;;;;;;5.70;1.80;;;;;;;31.33;38.85;99873.71;106137;1256;62322;-85
2024/04/25 10:20:07;;;;;;;4.60;2.00;;;;;;;31.13;39.28;99870.40;106453;1256;62233;-85
2024/04/25 10:22:37;;;;;;;3.30;2.10;;;;;;;30.22;42.23;99874.02;106593;1257;76477;-85
2024/04/25 10:25:14;;;;;;;4.20;1.70;;;;;;;30.61;41.24;99872.91;106344;1261;60403;-85
2024/04/25 10:27:42;;;;;;;2.20;1.30;;;;;;;31.14;40.67;99868.70;106138;1254;66405;-85
2024/04/25 10:30:10;;;;;;;4.80;2.10;;;;;;;31.56;39.23;99870.59;106485;1254;62337;-85
2024/04/25 10:32:38;;;;;;;4.30;1.90;;;;;;;31.76;38.67;99870.89;106282;1254;62095;-83
2024/04/25 10:35:06;;;;;;;7.70;1.30;;;;;;;31.19;39.34;99869.74;106215;1257;77607;-84
2024/04/25 10:37:39;;;;;;;4.80;1.60;;;;;;;31.24;39.62;99874.86;106310;1257;70980;-84
2024/04/25 10:40:08;;;;;;;3.10;1.40;;;;;;;32.76;36.98;99866.24;106403;1254;74949;-84
2024/04/25 10:42:35;;;;;;;4.50;2.30;;;;;;;32.60;36.59;99866.66;106336;1254;62333;-83
2024/04/25 10:45:03;;;;;;;2.40;1.30;;;;;;;32.63;36.50;99869.42;106315;1254;62146;-83
2024/04/25 10:47:31;;;;;;;7.20;1.90;;;;;;;32.58;36.52;99867.92;106372;1254;76638;-83
2024/04/25 10:49:59;;;;;;;3.00;1.70;;;;;;;32.39;36.80;99860.23;106516;1257;66868;-83
2024/04/25 10:52:27;;;;;;;4.30;1.80;;;;;;;31.95;37.46;99854.37;105966;1255;65313;-85
2024/04/25 10:54:54;;;;;;;4.50;1.60;;;;;;;32.56;36.57;99844.62;106081;1254;62249;-84
2024/04/25 10:57:22;;;;;;;3.40;1.60;;;;;;;32.75;36.36;99841.04;106249;1254;62150;-83
2024/04/25 10:59:49;;;;;;;3.10;1.70;;;;;;;32.61;36.68;99836.19;106291;1254;78052;-83
2024/04/25 11:02:17;;;;;;;3.40;1.70;;;;;;;32.26;37.17;99834.97;106260;1254;68138;-83
2024/04/25 11:04:45;;;;;;;5.40;1.80;;;;;;;32.18;37.39;99835.52;106151;1254;66221;-83
2024/04/25 11:07:12;;;;;;;3.80;1.60;;;;;;;31.38;38.31;99837.27;106208;1257;62166;-83
2024/04/25 11:09:40;;;;;;;1.70;1.50;;;;;;;31.30;39.62;99834.13;106389;1256;61970;-83
2024/04/25 11:12:08;;;;;;;2.90;1.80;;;;;;;31.72;39.40;99836.35;106560;1260;77720;-84
2024/04/25 11:14:40;;;;;;;2.20;1.20;;;;;;;31.33;39.64;99833.95;106240;1260;69548;-84
2024/04/25 11:17:07;;;;;;;1.30;1.10;;;;;;;30.78;39.23;99830.70;106486;1257;64827;-84
2024/04/25 11:19:35;;;;;;;3.30;1.40;;;;;;;30.54;39.81;99821.44;106475;1256;62086;-82
2024/04/25 11:22:15;;;;;;;2.00;1.20;;;;;;;31.34;37.08;99813.63;106249;1254;62172;-84
2024/04/25 11:25:12;;;;;;;2.70;1.40;;;;;;;31.54;37.09;99812.16;106249;1260;75857;-83
2024/04/25 11:27:40;;;;;;;4.00;1.40;;;;;;;31.60;36.56;99807.77;106585;1254;69813;-83
2024/04/25 11:30:07;;;;;;;2.10;1.30;;;;;;;31.48;36.51;99814.70;106215;1254;73573;-83
2024/04/25 11:32:35;;;;;;;2.30;1.20;;;;;;;31.64;36.53;99811.13;106089;1254;62146;-83